Time;durP1;ratioP1;P1;durP2;ratioP2;P2;SDS_P1;SDS_P2;PMS_P1;PMS_P2;Temp;Humidity;BMP_temperature;BMP_pressure;BME280_temperature;BME280_humidity;BME280_pressure;Samples;Min_cycle;Max_cycle;Signal;HPM_P1;HPM_P2
2023/12/20 00:01:20;;;;;;;0.00;0.00;;;5.20;99.90;;;;;;5040269;28;20059;-88
2023/12/20 00:03:45;;;;;;;0.10;0.10;;;5.10;99.90;;;;;;5057803;28;20052;-88
2023/12/20 00:06:11;;;;;;;0.10;0.10;;;5.00;99.90;;;;;;5058257;28;20462;-87
2023/12/20 00:08:37;;;;;;;0.05;0.03;;;5.00;99.90;;;;;;5023257;28;20079;-89
2023/12/20 00:11:02;;;;;;;2.55;0.63;;;5.00;99.90;;;;;;5057362;28;20444;-88
2023/12/20 00:13:28;;;;;;;0.55;0.55;;;4.90;99.90;;;;;;5057922;28;20080;-88
2023/12/20 00:15:53;;;;;;;0.08;0.08;;;4.90;99.90;;;;;;5039934;28;20079;-87
2023/12/20 00:18:19;;;;;;;4.03;2.17;;;4.80;99.90;;;;;;5023323;28;20041;-88
2023/12/20 00:20:44;;;;;;;0.73;0.63;;;4.70;99.90;;;;;;5057941;28;20121;-88
2023/12/20 00:23:10;;;;;;;11.30;2.08;;;4.60;99.90;;;;;;5040091;28;20505;-88
2023/12/20 00:25:35;;;;;;;0.00;0.00;;;4.60;99.90;;;;;;5058567;28;20187;-88
2023/12/20 00:28:02;;;;;;;0.30;0.30;;;4.60;99.90;;;;;;5056928;28;20040;-88
2023/12/20 00:30:28;;;;;;;0.10;0.10;;;4.70;99.90;;;;;;5056756;28;20052;-88
2023/12/20 00:32:53;;;;;;;21.30;0.80;;;4.80;99.90;;;;;;5056755;28;20049;-87
2023/12/20 00:35:19;;;;;;;0.00;0.00;;;4.80;99.90;;;;;;5056627;28;20483;-88
2023/12/20 00:37:44;;;;;;;0.10;0.10;;;4.70;99.90;;;;;;5038543;28;20041;-88
2023/12/20 00:40:11;;;;;;;0.00;0.00;;;4.70;99.90;;;;;;5022135;28;20038;-88
2023/12/20 00:42:36;;;;;;;7.82;1.10;;;4.80;99.90;;;;;;5056394;28;20067;-88
2023/12/20 00:45:04;;;;;;;0.55;0.55;;;4.90;99.90;;;;;;5038308;28;20483;-88
2023/12/20 00:47:30;;;;;;;0.20;0.20;;;5.00;99.90;;;;;;5055770;28;20426;-87
2023/12/20 00:49:56;;;;;;;0.00;0.00;;;5.10;99.90;;;;;;5038229;28;20049;-87
2023/12/20 00:52:22;;;;;;;0.35;0.35;;;5.00;99.90;;;;;;5038465;28;20103;-88
2023/12/20 00:54:48;;;;;;;0.22;0.22;;;4.90;99.90;;;;;;5038046;28;20049;-87
2023/12/20 00:57:14;;;;;;;0.00;0.00;;;4.90;99.90;;;;;;5038337;28;20068;-88
2023/12/20 00:59:39;;;;;;;0.00;0.00;;;4.90;99.90;;;;;;5056270;28;20041;-87
2023/12/20 01:02:05;;;;;;;0.70;0.60;;;4.90;99.90;;;;;;5038177;28;20131;-88
2023/12/20 01:04:31;;;;;;;0.00;0.00;;;5.00;99.90;;;;;;5038448;28;20040;-88
2023/12/20 01:06:56;;;;;;;0.00;0.00;;;5.10;99.90;;;;;;5056046;28;20040;-87
2023/12/20 01:09:26;;;;;;;0.65;0.52;;;5.00;99.90;;;;;;5054732;28;20123;-87
2023/12/20 01:11:55;;;;;;;0.45;0.43;;;5.40;99.90;;;;;;5037658;28;20053;-87
2023/12/20 01:14:20;;;;;;;0.10;0.10;;;5.00;99.90;;;;;;5037099;28;20041;-88
2023/12/20 01:16:47;;;;;;;2.15;1.98;;;5.10;99.90;;;;;;5021225;28;20045;-87
2023/12/20 01:19:13;;;;;;;0.00;0.00;;;5.10;99.90;;;;;;5055287;28;20133;-88
2023/12/20 01:21:39;;;;;;;0.00;0.00;;;5.10;99.90;;;;;;5037624;28;20073;-88
2023/12/20 01:24:05;;;;;;;0.30;0.30;;;5.20;99.90;;;;;;5020411;28;20037;-88
2023/12/20 01:26:30;;;;;;;0.00;0.00;;;5.20;99.90;;;;;;5037560;28;20052;-88
2023/12/20 01:28:56;;;;;;;0.00;0.00;;;5.30;99.90;;;;;;5054659;28;20398;-88
2023/12/20 01:31:22;;;;;;;0.00;0.00;;;5.40;99.90;;;;;;5037981;28;20098;-87
2023/12/20 01:33:47;;;;;;;0.00;0.00;;;5.40;99.90;;;;;;5037603;28;20076;-87
2023/12/20 01:36:13;;;;;;;0.05;0.05;;;5.30;99.90;;;;;;5037313;28;20045;-88
2023/12/20 01:38:39;;;;;;;9.02;0.98;;;5.20;99.90;;;;;;5047355;28;20044;-87
2023/12/20 01:41:04;;;;;;;0.57;0.57;;;5.10;99.90;;;;;;5057509;28;20402;-88
2023/12/20 01:43:30;;;;;;;0.00;0.00;;;5.00;99.90;;;;;;5062590;28;20079;-88
2023/12/20 01:45:57;;;;;;;0.00;0.00;;;5.00;99.90;;;;;;5037087;28;20049;-88
2023/12/20 01:48:25;;;;;;;0.10;0.10;;;5.00;99.90;;;;;;5054951;28;20033;-88
2023/12/20 01:50:51;;;;;;;13.35;0.90;;;5.10;99.90;;;;;;5037018;28;20052;-88
2023/12/20 01:53:19;;;;;;;12.75;1.10;;;5.20;99.90;;;;;;5037655;28;20045;-88
2023/12/20 01:55:44;;;;;;;0.00;0.00;;;5.30;99.90;;;;;;5055175;28;20487;-87
2023/12/20 01:58:12;;;;;;;7.97;1.40;;;5.30;99.90;;;;;;5038546;28;20079;-86
2023/12/20 02:00:38;;;;;;;24.30;1.08;;;5.30;99.90;;;;;;5055435;28;20091;-86
2023/12/20 02:03:04;;;;;;;0.00;0.00;;;5.40;99.90;;;;;;5055752;28;20059;-85
2023/12/20 02:05:31;;;;;;;0.00;0.00;;;5.40;99.90;;;;;;5037170;28;20040;-86
2023/12/20 02:07:56;;;;;;;0.30;0.25;;;5.40;99.90;;;;;;5040574;28;20040;-86
2023/12/20 02:10:23;;;;;;;1.35;1.25;;;5.50;99.90;;;;;;5059437;28;20062;-85
2023/12/20 02:12:48;;;;;;;0.88;0.88;;;5.30;99.90;;;;;;5037646;28;20045;-86
2023/12/20 02:15:14;;;;;;;0.20;0.20;;;5.20;99.90;;;;;;5060419;28;20043;-86
2023/12/20 02:17:40;;;;;;;0.00;0.00;;;5.20;99.90;;;;;;5055645;28;20064;-86
2023/12/20 02:20:06;;;;;;;4.25;3.15;;;5.30;99.90;;;;;;5054637;28;20045;-86
2023/12/20 02:22:32;;;;;;;0.43;0.43;;;5.30;99.90;;;;;;5055550;28;20438;-86
2023/12/20 02:24:57;;;;;;;0.00;0.00;;;5.40;99.90;;;;;;5043118;28;20045;-86
2023/12/20 02:27:23;;;;;;;0.65;0.65;;;5.40;99.90;;;;;;5066432;28;20095;-86
2023/12/20 02:29:50;;;;;;;0.00;0.00;;;5.30;99.90;;;;;;5053884;28;20051;-85
2023/12/20 02:32:19;;;;;;;0.00;0.00;;;5.30;99.90;;;;;;5037533;28;20540;-86
2023/12/20 02:34:45;;;;;;;1.95;0.85;;;5.30;99.90;;;;;;5055025;28;20045;-86
2023/12/20 02:37:11;;;;;;;0.00;0.00;;;5.30;99.90;;;;;;5037427;28;20045;-86
2023/12/20 02:39:37;;;;;;;0.20;0.20;;;5.20;99.90;;;;;;5057460;28;20041;-86
2023/12/20 02:42:02;;;;;;;0.20;0.20;;;5.10;99.90;;;;;;5037249;28;20041;-86
2023/12/20 02:44:28;;;;;;;0.20;0.20;;;5.10;99.90;;;;;;5036856;28;20041;-86
2023/12/20 02:46:54;;;;;;;7.30;3.97;;;5.10;99.90;;;;;;5038528;28;20037;-87
2023/12/20 02:49:19;;;;;;;0.10;0.10;;;5.10;99.90;;;;;;5063711;28;20518;-87
2023/12/20 02:51:46;;;;;;;0.00;0.00;;;5.10;99.90;;;;;;5057829;28;20390;-87
2023/12/20 02:54:11;;;;;;;0.65;0.65;;;5.00;99.90;;;;;;5038440;28;20099;-87
2023/12/20 02:56:37;;;;;;;4.47;1.65;;;5.00;99.90;;;;;;5049253;28;20491;-86
2023/12/20 02:59:05;;;;;;;0.00;0.00;;;4.90;99.90;;;;;;5049843;28;20100;-87
2023/12/20 03:01:31;;;;;;;0.00;0.00;;;5.00;99.90;;;;;;5051935;28;20063;-87
2023/12/20 03:03:56;;;;;;;27.10;0.90;;;5.00;99.90;;;;;;5054611;28;20475;-87
2023/12/20 03:06:22;;;;;;;3.47;2.08;;;5.10;99.90;;;;;;5036823;28;20051;-87
2023/12/20 03:08:47;;;;;;;0.10;0.10;;;5.20;99.90;;;;;;5036058;28;20055;-87
2023/12/20 03:11:13;;;;;;;1.13;0.88;;;5.10;99.90;;;;;;5053991;28;20479;-87
2023/12/20 03:13:38;;;;;;;1.67;1.55;;;5.20;99.90;;;;;;5036182;28;20045;-87
2023/12/20 03:16:11;;;;;;;0.00;0.00;;;5.30;99.90;;;;;;5053667;28;20033;-87
2023/12/20 03:18:37;;;;;;;0.00;0.00;;;5.30;99.90;;;;;;5036288;28;20394;-86
2023/12/20 03:21:04;;;;;;;2.40;0.88;;;5.30;99.90;;;;;;5035406;28;20033;-87
2023/12/20 03:23:30;;;;;;;0.15;0.15;;;5.40;99.90;;;;;;5053538;28;20041;-87
2023/12/20 03:25:56;;;;;;;0.47;0.47;;;5.40;99.90;;;;;;5035549;28;20090;-87
2023/12/20 03:28:23;;;;;;;0.52;0.52;;;5.40;99.90;;;;;;5053172;28;20049;-87
2023/12/20 03:30:48;;;;;;;0.15;0.15;;;5.40;99.90;;;;;;5036253;28;20084;-87
2023/12/20 03:33:14;;;;;;;0.00;0.00;;;5.40;99.90;;;;;;5054065;28;20080;-86
2023/12/20 03:35:39;;;;;;;0.05;0.05;;;5.50;99.90;;;;;;5057684;28;20450;-87
2023/12/20 03:38:05;;;;;;;0.25;0.15;;;5.70;99.90;;;;;;5035977;28;20099;-87
2023/12/20 03:40:31;;;;;;;0.52;0.52;;;5.60;99.90;;;;;;5053099;28;20055;-87
2023/12/20 03:42:56;;;;;;;0.85;0.85;;;5.70;99.90;;;;;;5035894;28;20048;-87
2023/12/20 03:45:22;;;;;;;0.10;0.10;;;5.70;99.90;;;;;;5045197;28;20098;-87
2023/12/20 03:47:48;;;;;;;13.15;0.90;;;5.60;99.90;;;;;;5053925;28;20044;-87
2023/12/20 03:50:14;;;;;;;0.57;0.57;;;5.50;99.90;;;;;;5035380;28;20403;-87
2023/12/20 03:52:39;;;;;;;6.18;1.55;;;5.40;99.90;;;;;;5037048;28;20048;-87
2023/12/20 03:55:05;;;;;;;0.55;0.55;;;5.40;99.90;;;;;;5056909;28;20049;-87
2023/12/20 03:57:31;;;;;;;0.00;0.00;;;5.40;99.90;;;;;;5057343;28;20098;-87
2023/12/20 03:59:56;;;;;;;0.80;0.80;;;5.30;99.90;;;;;;5038828;28;20045;-87
2023/12/20 04:02:22;;;;;;;12.20;1.42;;;5.30;99.90;;;;;;5056487;28;20553;-87
2023/12/20 04:04:47;;;;;;;1.00;0.90;;;5.40;99.90;;;;;;5058800;28;20154;-87
2023/12/20 04:07:13;;;;;;;0.47;0.47;;;5.50;99.90;;;;;;5040792;28;20037;-87
2023/12/20 04:09:40;;;;;;;27.67;3.05;;;5.80;99.90;;;;;;5051920;28;20044;-87
2023/12/20 04:12:06;;;;;;;0.22;0.22;;;5.70;99.90;;;;;;5051248;28;20482;-87
2023/12/20 04:14:32;;;;;;;0.95;0.60;;;5.70;99.90;;;;;;5056436;28;20053;-87
2023/12/20 04:16:58;;;;;;;0.43;0.43;;;5.80;99.90;;;;;;5014308;28;20041;-87
2023/12/20 04:19:23;;;;;;;0.15;0.15;;;5.80;99.90;;;;;;5056047;28;20079;-87
2023/12/20 04:21:49;;;;;;;0.00;0.00;;;5.70;1.00;;;;;;5038468;28;20091;-87
2023/12/20 04:24:14;;;;;;;0.13;0.10;;;5.80;99.90;;;;;;5056543;28;20494;-87
2023/12/20 04:26:40;;;;;;;1.65;1.48;;;5.90;99.90;;;;;;5056723;28;20112;-87
2023/12/20 04:29:05;;;;;;;0.15;0.15;;;5.90;99.90;;;;;;5062638;28;20037;-87
2023/12/20 04:31:31;;;;;;;1.17;1.10;;;6.70;99.90;;;;;;5068535;28;20397;-87
2023/12/20 04:33:56;;;;;;;0.10;0.10;;;5.80;1.00;;;;;;5056011;28;20533;-86
2023/12/20 04:36:22;;;;;;;6.22;0.52;;;5.80;18.80;;;;;;5021126;28;20390;-87
2023/12/20 04:38:48;;;;;;;1.65;1.55;;;5.90;1.00;;;;;;5038062;28;20045;-88
2023/12/20 04:41:18;;;;;;;0.63;0.63;;;5.90;99.90;;;;;;5038079;28;20041;-87
2023/12/20 04:43:44;;;;;;;1.02;0.32;;;5.90;99.90;;;;;;5055631;28;20053;-87
2023/12/20 04:46:10;;;;;;;2.83;1.35;;;5.90;99.90;;;;;;5055836;28;20052;-87
2023/12/20 04:48:35;;;;;;;0.80;0.80;;;5.90;99.90;;;;;;5038077;28;20461;-87
2023/12/20 04:51:01;;;;;;;4.38;0.47;;;5.80;99.90;;;;;;5037599;28;20049;-88
2023/12/20 04:53:27;;;;;;;0.25;0.25;;;6.80;99.90;;;;;;5037895;28;20076;-87
2023/12/20 04:55:53;;;;;;;4.57;1.08;;;5.90;99.90;;;;;;5056261;28;20084;-88
2023/12/20 04:58:19;;;;;;;0.00;0.00;;;6.00;5.90;;;;;;5038066;28;20041;-88
2023/12/20 05:00:44;;;;;;;16.40;1.08;;;6.00;1.00;;;;;;5038254;28;20041;-87
2023/12/20 05:03:10;;;;;;;0.00;0.00;;;6.10;1.00;;;;;;5037171;28;20045;-87
2023/12/20 05:05:36;;;;;;;6.00;3.00;;;6.00;1.00;;;;;;5052807;28;20036;-88
2023/12/20 05:08:01;;;;;;;0.85;0.75;;;6.10;1.00;;;;;;5076015;28;20478;-88
2023/12/20 05:10:27;;;;;;;0.52;0.43;;;6.20;99.90;;;;;;5039938;28;20107;-87
2023/12/20 05:12:53;;;;;;;0.30;0.30;;;6.20;99.90;;;;;;5050284;28;20033;-87
2023/12/20 05:15:19;;;;;;;1.85;0.60;;;6.30;99.90;;;;;;5035576;28;20510;-88
2023/12/20 05:17:44;;;;;;;2.50;1.65;;;6.30;99.90;;;;;;5035617;28;20095;-88
2023/12/20 05:20:10;;;;;;;1.45;0.60;;;6.20;99.90;;;;;;5035682;28;20049;-87
2023/12/20 05:22:36;;;;;;;0.60;0.45;;;6.30;99.90;;;;;;5035569;28;20045;-88
2023/12/20 05:25:02;;;;;;;3.20;2.90;;;6.30;90.30;;;;;;5017843;28;20411;-88
2023/12/20 05:27:27;;;;;;;0.17;0.17;;;6.30;99.90;;;;;;5035869;28;20156;-88
2023/12/20 05:29:53;;;;;;;5.45;1.63;;;6.40;99.90;;;;;;5029264;28;20463;-87
2023/12/20 05:32:18;;;;;;;12.25;2.72;;;6.40;99.90;;;;;;5055546;28;20033;-87
2023/12/20 05:34:44;;;;;;;7.30;2.33;;;6.40;95.60;;;;;;5037369;28;20434;-88
2023/12/20 05:37:09;;;;;;;2.00;1.10;;;6.40;1.00;;;;;;5051023;28;20033;-88
2023/12/20 05:39:35;;;;;;;0.05;0.03;;;6.40;54.70;;;;;;5034859;28;20103;-88
2023/12/20 05:42:01;;;;;;;2.80;1.60;;;6.50;96.60;;;;;;5017983;28;20395;-88
2023/12/20 05:44:26;;;;;;;0.00;0.00;;;6.50;1.00;;;;;;5021379;28;20037;-87
2023/12/20 05:46:52;;;;;;;0.08;0.08;;;6.50;1.00;;;;;;5037359;28;20083;-88
2023/12/20 05:49:17;;;;;;;0.77;0.52;;;6.50;1.00;;;;;;5035188;28;20128;-88
2023/12/20 05:51:43;;;;;;;1.27;1.23;;;6.40;1.00;;;;;;5034726;28;20060;-88
2023/12/20 05:54:09;;;;;;;0.05;0.05;;;6.50;16.10;;;;;;5017276;28;20398;-88
2023/12/20 05:56:35;;;;;;;4.07;1.35;;;6.50;1.00;;;;;;5016795;28;20090;-88
2023/12/20 05:59:00;;;;;;;0.00;0.00;;;6.50;1.00;;;;;;5017320;28;20041;-88
2023/12/20 06:01:26;;;;;;;1.52;0.63;;;6.60;99.90;;;;;;5034580;28;20049;-88
2023/12/20 06:03:51;;;;;;;1.88;1.27;;;6.60;1.00;;;;;;5034992;28;20091;-88
2023/12/20 06:06:17;;;;;;;0.22;0.22;;;6.50;99.90;;;;;;5035049;28;20487;-88
2023/12/20 06:08:43;;;;;;;5.60;1.13;;;6.60;1.00;;;;;;5017735;28;20072;-88
2023/12/20 06:11:09;;;;;;;2.55;0.55;;;6.60;99.90;;;;;;5049223;28;20093;-88
2023/12/20 06:13:35;;;;;;;0.30;0.30;;;6.60;99.90;;;;;;5037833;28;20135;-88
2023/12/20 06:16:01;;;;;;;0.00;0.00;;;6.70;99.90;;;;;;5034142;28;20045;-88
2023/12/20 06:18:26;;;;;;;1.67;1.55;;;6.70;99.90;;;;;;5034243;28;20042;-88
2023/12/20 06:20:52;;;;;;;0.00;0.00;;;6.70;99.90;;;;;;5013629;28;20049;-88
2023/12/20 06:23:17;;;;;;;0.00;0.00;;;6.70;99.90;;;;;;5054602;28;20426;-88
2023/12/20 06:25:44;;;;;;;0.60;0.47;;;6.70;99.90;;;;;;5042071;28;20037;-88
2023/12/20 06:28:10;;;;;;;6.60;2.38;;;6.70;99.90;;;;;;5038706;28;20041;-88
2023/12/20 06:30:36;;;;;;;2.63;1.35;;;6.80;99.90;;;;;;5053288;28;20056;-88
2023/12/20 06:33:01;;;;;;;0.00;0.00;;;6.80;75.40;;;;;;5035210;28;20041;-88
2023/12/20 06:35:27;;;;;;;0.00;0.00;;;6.90;99.90;;;;;;5052985;28;20041;-88
2023/12/20 06:37:52;;;;;;;0.25;0.25;;;6.90;1.00;;;;;;5053222;28;20116;-88
2023/12/20 06:40:18;;;;;;;3.15;1.77;;;7.00;1.00;;;;;;5035516;28;20048;-88
2023/12/20 06:42:44;;;;;;;3.00;1.05;;;7.10;78.40;;;;;;5053143;28;20391;-88
2023/12/20 06:45:10;;;;;;;0.85;0.73;;;7.20;93.30;;;;;;5052499;28;20091;-88
2023/12/20 06:47:35;;;;;;;0.00;0.00;;;7.10;99.90;;;;;;5035063;28;20556;-88
2023/12/20 06:50:01;;;;;;;0.45;0.45;;;7.20;1.00;;;;;;5034637;28;20561;-89
2023/12/20 06:52:26;;;;;;;0.00;0.00;;;7.20;99.90;;;;;;5053006;28;20433;-88
2023/12/20 06:54:52;;;;;;;0.63;0.57;;;7.20;87.60;;;;;;5036516;28;20053;-88
2023/12/20 06:57:19;;;;;;;3.97;1.80;;;7.20;99.90;;;;;;5032944;28;20053;-88
2023/12/20 06:59:45;;;;;;;0.00;0.00;;;7.20;99.90;;;;;;5015159;28;20522;-88
2023/12/20 07:02:10;;;;;;;2.45;1.70;;;7.20;1.00;;;;;;5015043;28;20049;-88
2023/12/20 07:04:40;;;;;;;0.00;0.00;;;7.10;99.90;;;;;;5033125;28;20033;-88
2023/12/20 07:07:07;;;;;;;0.55;0.55;;;7.00;99.90;;;;;;5031932;28;20501;-88
2023/12/20 07:09:32;;;;;;;2.38;1.55;;;7.00;1.00;;;;;;5052857;28;20057;-88
2023/12/20 07:11:58;;;;;;;0.00;0.00;;;7.10;1.00;;;;;;5034642;28;20560;-88
2023/12/20 07:14:24;;;;;;;0.45;0.45;;;7.10;72.00;;;;;;5025109;28;20451;-88
2023/12/20 07:16:49;;;;;;;0.20;0.20;;;7.00;99.90;;;;;;5036807;28;20117;-88
2023/12/20 07:19:15;;;;;;;14.95;1.25;;;7.00;1.00;;;;;;5035225;28;20045;-88
2023/12/20 07:21:40;;;;;;;0.35;0.35;;;7.00;99.90;;;;;;5035054;28;20052;-88
2023/12/20 07:24:06;;;;;;;0.52;0.52;;;7.00;99.90;;;;;;5026138;28;20465;-88
2023/12/20 07:26:32;;;;;;;1.65;1.15;;;7.10;99.90;;;;;;5052890;28;20056;-88
2023/12/20 07:28:58;;;;;;;1.45;0.57;;;7.00;99.90;;;;;;5038251;28;20049;-88
2023/12/20 07:31:24;;;;;;;3.83;2.17;;;7.10;99.90;;;;;;5020674;28;20033;-88
2023/12/20 07:33:49;;;;;;;1.33;1.02;;;7.10;99.90;;;;;;5055063;28;20075;-88
2023/12/20 07:36:15;;;;;;;0.00;0.00;;;7.20;1.00;;;;;;5021706;28;20049;-88
2023/12/20 07:38:41;;;;;;;0.32;0.15;;;7.20;1.00;;;;;;5000980;28;20076;-88
2023/12/20 07:41:10;;;;;;;0.00;0.00;;;7.30;99.90;;;;;;5017062;28;20092;-88
2023/12/20 07:43:35;;;;;;;1.55;0.68;;;7.30;99.90;;;;;;5035346;28;20203;-88
2023/12/20 07:46:08;;;;;;;0.50;0.50;;;7.30;99.90;;;;;;5035482;28;20566;-88
2023/12/20 07:48:38;;;;;;;0.10;0.10;;;7.30;99.90;;;;;;5017322;28;20092;-88
2023/12/20 07:51:05;;;;;;;0.10;0.10;;;7.30;1.00;;;;;;5035447;28;20042;-88
2023/12/20 07:53:31;;;;;;;2.92;2.00;;;7.40;99.90;;;;;;5017888;28;20496;-88
2023/12/20 07:55:57;;;;;;;1.08;0.82;;;7.50;99.90;;;;;;5018421;28;20137;-88
2023/12/20 07:58:23;;;;;;;8.10;1.48;;;7.50;74.10;;;;;;5037645;28;20474;-88
2023/12/20 08:00:48;;;;;;;2.15;1.30;;;7.60;96.20;;;;;;5000862;28;20072;-88
2023/12/20 08:03:14;;;;;;;1.10;0.65;;;7.60;1.00;;;;;;5034444;28;20123;-88
2023/12/20 08:05:40;;;;;;;0.20;0.20;;;7.70;1.00;;;;;;5034583;28;20041;-88
2023/12/20 08:08:06;;;;;;;0.45;0.20;;;7.80;99.90;;;;;;5016307;28;20117;-88
2023/12/20 08:10:32;;;;;;;0.10;0.10;;;7.80;99.90;;;;;;5049471;28;20060;-88
2023/12/20 08:12:58;;;;;;;4.22;2.45;;;7.80;99.90;;;;;;5040906;28;20424;-88
2023/12/20 08:15:23;;;;;;;4.80;2.72;;;7.80;99.90;;;;;;5065004;28;20041;-88
2023/12/20 08:17:53;;;;;;;0.73;0.70;;;7.80;99.90;;;;;;5054876;28;20056;-88
2023/12/20 08:20:18;;;;;;;1.75;1.33;;;8.50;99.90;;;;;;5067517;28;20052;-88
2023/12/20 08:22:44;;;;;;;3.65;0.73;;;7.90;99.90;;;;;;5052898;28;20063;-87
2023/12/20 08:25:09;;;;;;;10.00;1.10;;;8.00;99.90;;;;;;5053957;28;20052;-88
2023/12/20 08:27:41;;;;;;;4.38;1.75;;;7.90;99.90;;;;;;5041192;28;20483;-88
2023/12/20 08:30:09;;;;;;;0.00;0.00;;;8.10;99.90;;;;;;5053947;28;20077;-88
2023/12/20 08:32:34;;;;;;;2.47;1.40;;;8.00;99.90;;;;;;5047060;28;20474;-88
2023/12/20 08:35:00;;;;;;;1.23;1.13;;;8.30;99.90;;;;;;5053487;28;20080;-88
2023/12/20 08:37:25;;;;;;;0.43;0.35;;;8.10;99.90;;;;;;5039411;28;20038;-88
2023/12/20 08:39:51;;;;;;;0.08;0.08;;;7.80;99.90;;;;;;5066893;28;20036;-88
2023/12/20 08:42:17;;;;;;;0.47;0.47;;;7.60;99.90;;;;;;5050746;28;20041;-88
2023/12/20 08:44:42;;;;;;;0.00;0.00;;;7.60;89.90;;;;;;5035798;28;20033;-88
2023/12/20 08:47:08;;;;;;;3.40;0.70;;;7.60;99.90;;;;;;5053724;28;20452;-88
2023/12/20 08:49:34;;;;;;;0.25;0.22;;;7.70;95.20;;;;;;5046485;28;20049;-88
2023/12/20 08:51:59;;;;;;;0.70;0.68;;;9.00;1.00;;;;;;5053670;28;20041;-88
2023/12/20 08:54:25;;;;;;;1.17;1.00;;;7.70;1.00;;;;;;5068893;28;20044;-88
2023/12/20 08:56:50;;;;;;;0.35;0.28;;;7.70;1.00;;;;;;5073684;28;20123;-88
2023/12/20 08:59:16;;;;;;;0.08;0.08;;;7.80;1.00;;;;;;5072691;28;20506;-88
2023/12/20 09:01:41;;;;;;;0.25;0.25;;;7.80;1.00;;;;;;5059703;28;20040;-88
2023/12/20 09:04:07;;;;;;;0.85;0.85;;;7.80;1.00;;;;;;5052522;28;20040;-88
2023/12/20 09:06:33;;;;;;;4.82;2.35;;;7.90;1.00;;;;;;5039993;28;20040;-88
2023/12/20 09:08:58;;;;;;;0.00;0.00;;;7.90;1.00;;;;;;5053044;28;20080;-88
2023/12/20 09:11:24;;;;;;;0.00;0.00;;;7.70;6.70;;;;;;5053212;28;20063;-88
2023/12/20 09:13:49;;;;;;;1.13;0.95;;;7.70;63.60;;;;;;5034672;28;20045;-88
2023/12/20 09:16:15;;;;;;;0.10;0.10;;;7.70;99.90;;;;;;5053546;28;20534;-89
2023/12/20 09:18:42;;;;;;;0.00;0.00;;;7.30;21.50;;;;;;5035510;28;20041;-87
2023/12/20 09:21:07;;;;;;;0.52;0.52;;;6.20;1.00;;;;;;5034579;28;20411;-86
2023/12/20 09:23:33;;;;;;;0.00;0.00;;;5.60;99.90;;;;;;5049092;28;20041;-85
2023/12/20 09:25:59;;;;;;;2.17;0.47;;;5.40;14.90;;;;;;5055457;28;20040;-85
2023/12/20 09:28:24;;;;;;;0.22;0.17;;;6.20;99.90;;;;;;5032718;28;20049;-85
2023/12/20 09:30:50;;;;;;;0.25;0.25;;;5.20;99.90;;;;;;5033602;28;20041;-85
2023/12/20 09:33:16;;;;;;;0.00;0.00;;;5.30;1.00;;;;;;5070373;28;20528;-85
2023/12/20 09:35:42;;;;;;;0.00;0.00;;;5.30;1.00;;;;;;5037035;28;20041;-86
2023/12/20 09:38:07;;;;;;;0.10;0.10;;;5.20;1.00;;;;;;5045232;28;20095;-85
2023/12/20 09:40:36;;;;;;;0.00;0.00;;;5.20;1.00;;;;;;5015946;28;20430;-86
2023/12/20 09:43:10;;;;;;;0.00;0.00;;;5.20;1.00;;;;;;5054088;28;20102;-86
2023/12/20 09:45:35;;;;;;;0.10;0.10;;;5.10;99.90;;;;;;5052845;28;20044;-86
2023/12/20 09:48:04;;;;;;;0.00;0.00;;;5.20;99.90;;;;;;5052437;28;20044;-86
2023/12/20 09:50:32;;;;;;;0.00;0.00;;;5.20;99.90;;;;;;5055048;28;20414;-86
2023/12/20 09:53:00;;;;;;;0.00;0.00;;;5.20;99.90;;;;;;5050178;28;20128;-86
2023/12/20 09:55:27;;;;;;;0.20;0.20;;;5.30;99.90;;;;;;5050325;28;20043;-86
2023/12/20 09:57:53;;;;;;;0.00;0.00;;;5.30;99.90;;;;;;5031459;28;20513;-86
2023/12/20 10:00:19;;;;;;;0.00;0.00;;;5.30;99.90;;;;;;5051639;28;20033;-86
2023/12/20 10:02:59;;;;;;;0.00;0.00;;;5.30;99.90;;;;;;5033989;28;20056;-86
2023/12/20 10:05:31;;;;;;;0.00;0.00;;;5.30;99.90;;;;;;5059308;28;20379;-85
2023/12/20 10:07:58;;;;;;;1.85;0.95;;;5.40;99.90;;;;;;5031621;28;20442;-86
2023/12/20 10:10:24;;;;;;;0.00;0.00;;;5.70;99.90;;;;;;5032753;28;20064;-86
2023/12/20 10:13:07;;;;;;;0.20;0.20;;;5.40;99.90;;;;;;5050670;28;20132;-86
2023/12/20 10:15:33;;;;;;;1.08;1.02;;;5.40;99.90;;;;;;5036686;28;20069;-86
2023/12/20 10:17:59;;;;;;;11.30;0.88;;;5.40;99.90;;;;;;5033609;28;20056;-86
2023/12/20 10:20:25;;;;;;;0.00;0.00;;;5.30;99.90;;;;;;5062362;28;20398;-86
2023/12/20 10:22:53;;;;;;;0.20;0.20;;;5.50;99.90;;;;;;5058273;28;20045;-86
2023/12/20 10:25:20;;;;;;;0.10;0.10;;;5.40;99.90;;;;;;5034696;28;20102;-87
2023/12/20 10:27:45;;;;;;;0.00;0.00;;;5.40;99.90;;;;;;5059985;28;20054;-87
2023/12/20 10:30:11;;;;;;;20.02;1.25;;;5.40;99.90;;;;;;5064406;28;20036;-87
2023/12/20 10:32:37;;;;;;;0.00;0.00;;;5.30;99.90;;;;;;5062948;28;20040;-87
2023/12/20 10:35:03;;;;;;;0.00;0.00;;;5.30;99.90;;;;;;5048126;28;20107;-87
2023/12/20 10:37:28;;;;;;;0.10;0.10;;;5.30;99.90;;;;;;5050741;28;20044;-86
2023/12/20 10:39:57;;;;;;;0.00;0.00;;;5.30;99.90;;;;;;5039228;28;20036;-87
2023/12/20 10:42:26;;;;;;;1.65;1.25;;;5.20;99.90;;;;;;5024830;28;20033;-87
2023/12/20 10:44:53;;;;;;;0.10;0.10;;;5.30;99.90;;;;;;5053185;28;20422;-87
2023/12/20 10:47:20;;;;;;;0.00;0.00;;;5.30;99.90;;;;;;5066014;28;20051;-87
2023/12/20 10:49:46;;;;;;;0.00;0.00;;;5.20;99.90;;;;;;5052517;28;20044;-87
2023/12/20 10:52:12;;;;;;;1.58;0.80;;;5.30;99.90;;;;;;5059724;28;20115;-87
2023/12/20 10:54:41;;;;;;;0.55;0.55;;;5.40;99.90;;;;;;5032589;28;20056;-85
2023/12/20 10:57:07;;;;;;;2.05;1.35;;;5.40;99.90;;;;;;5035312;28;20551;-87
2023/12/20 10:59:39;;;;;;;0.00;0.00;;;5.40;99.90;;;;;;5033115;28;20052;-87
2023/12/20 11:02:05;;;;;;;0.00;0.00;;;5.40;76.80;;;;;;5036024;28;20037;-87
2023/12/20 11:04:59;;;;;;;0.00;0.00;;;5.40;59.30;;;;;;5056349;28;20037;-87
2023/12/20 11:07:32;;;;;;;0.30;0.30;;;5.40;1.00;;;;;;5037044;28;20044;-87
2023/12/20 11:10:20;;;;;;;0.00;0.00;;;5.50;1.00;;;;;;5038455;28;20071;-87
2023/12/20 11:12:54;;;;;;;0.10;0.10;;;5.70;1.00;;;;;;5055908;28;20514;-87
2023/12/20 11:15:21;;;;;;;0.30;0.28;;;5.80;99.90;;;;;;5054920;28;20124;-87
2023/12/20 11:17:54;;;;;;;1.45;1.35;;;6.80;99.90;;;;;;5022234;28;20037;-87
2023/12/20 11:20:35;;;;;;;0.00;0.00;;;6.00;83.80;;;;;;5056566;28;20044;-87
2023/12/20 11:23:01;;;;;;;1.85;1.75;;;6.10;1.00;;;;;;5056689;28;20049;-87
2023/12/20 11:25:27;;;;;;;2.72;1.08;;;6.20;1.00;;;;;;5056486;28;20550;-87
2023/12/20 11:28:12;;;;;;;0.00;0.00;;;6.20;99.90;;;;;;5037538;28;20041;-87
2023/12/20 11:30:49;;;;;;;0.08;0.08;;;6.20;61.50;;;;;;5056162;28;20076;-87
2023/12/20 11:33:16;;;;;;;0.00;0.00;;;6.30;99.90;;;;;;5056170;28;20441;-87
2023/12/20 11:35:41;;;;;;;0.10;0.10;;;6.30;99.90;;;;;;5055649;28;20471;-87
2023/12/20 11:38:11;;;;;;;0.40;0.35;;;6.30;99.90;;;;;;5055937;28;20080;-87
2023/12/20 11:40:37;;;;;;;0.00;0.00;;;6.40;99.90;;;;;;5055728;28;20486;-87
2023/12/20 11:43:03;;;;;;;2.10;0.90;;;6.50;99.90;;;;;;5055929;28;20041;-87
2023/12/20 11:45:29;;;;;;;0.00;0.00;;;6.50;99.90;;;;;;5055635;28;20507;-87
2023/12/20 11:47:57;;;;;;;0.17;0.17;;;6.50;71.20;;;;;;5055751;28;20052;-87
2023/12/20 11:50:23;;;;;;;0.45;0.05;;;6.50;99.90;;;;;;5055895;28;20056;-87
2023/12/20 11:52:52;;;;;;;0.00;0.00;;;6.60;44.70;;;;;;5038110;28;20486;-87
2023/12/20 11:55:18;;;;;;;1.02;0.55;;;6.60;98.80;;;;;;5055578;28;20083;-87
2023/12/20 11:57:44;;;;;;;0.47;0.43;;;6.70;99.90;;;;;;5056010;28;20126;-87
2023/12/20 12:00:10;;;;;;;0.17;0.17;;;6.90;29.50;;;;;;5055393;28;20056;-87
2023/12/20 12:02:36;;;;;;;0.60;0.55;;;7.00;1.00;;;;;;5055812;28;20041;-87
2023/12/20 12:05:05;;;;;;;0.00;0.00;;;7.20;99.90;;;;;;5056116;28;20394;-87
2023/12/20 12:07:31;;;;;;;0.00;0.00;;;7.20;99.90;;;;;;5047181;28;20498;-87
2023/12/20 12:09:57;;;;;;;0.00;0.00;;;7.10;99.90;;;;;;5055221;28;20053;-87
2023/12/20 12:12:25;;;;;;;0.00;0.00;;;7.20;99.90;;;;;;5044641;28;20057;-87
2023/12/20 12:14:50;;;;;;;2.13;1.35;;;7.20;99.90;;;;;;5035607;28;20434;-87
2023/12/20 12:17:16;;;;;;;0.15;0.15;;;7.20;99.90;;;;;;5026433;28;20120;-87
2023/12/20 12:19:42;;;;;;;0.10;0.10;;;7.30;99.90;;;;;;5015459;28;20136;-87
2023/12/20 12:22:16;;;;;;;0.00;0.00;;;7.30;99.90;;;;;;5021282;28;20376;-87
2023/12/20 12:24:46;;;;;;;0.03;0.03;;;7.30;99.90;;;;;;5035515;28;20117;-87
2023/12/20 12:27:13;;;;;;;0.38;0.35;;;7.30;99.90;;;;;;5035944;28;20041;-87
2023/12/20 12:29:39;;;;;;;0.00;0.00;;;7.30;99.90;;;;;;5035516;28;20044;-87
2023/12/20 12:32:09;;;;;;;0.13;0.10;;;7.30;99.90;;;;;;5035851;28;20041;-87
2023/12/20 12:34:35;;;;;;;1.45;1.35;;;7.30;99.90;;;;;;5034612;28;20494;-87
2023/12/20 12:37:03;;;;;;;5.35;0.57;;;7.30;99.90;;;;;;5032689;28;20121;-87
2023/12/20 12:39:29;;;;;;;0.00;0.00;;;7.30;99.90;;;;;;5013818;28;20045;-87
2023/12/20 12:41:55;;;;;;;0.00;0.00;;;7.60;99.90;;;;;;5026638;28;20090;-87
2023/12/20 12:44:23;;;;;;;1.48;1.38;;;7.30;99.90;;;;;;5039792;28;20455;-87
2023/12/20 12:46:53;;;;;;;1.00;1.00;;;7.20;99.90;;;;;;5033099;28;20116;-87
2023/12/20 12:49:19;;;;;;;0.80;0.80;;;7.30;99.90;;;;;;5018995;28;20048;-87
2023/12/20 12:51:45;;;;;;;0.00;0.00;;;7.30;99.90;;;;;;5037046;28;20053;-87
2023/12/20 12:54:13;;;;;;;0.00;0.00;;;7.30;99.90;;;;;;5032541;28;20044;-87